• Join FlightAware (Why Join?)
  • Login
  • US Flag 
02:15AM EDT


 

Airport Tracker/Info


-or-


 

Live Flight TrackerFlight Track Log ✈ N1944E ✈ 24-Aug-2013 ✈ KCOD - KAFO

Flight Track Log - Related Links

Times and Time Zones

All times are in EDT time to prevent confusion due to time zone crossing. See the N1944E flight status page for this flight to view local times or setup timezone preferences in your user account.

Time Position Orientation Groundspeed Altitude Reporting Facility
EDT Latitude Longitude Course Direction KTS MPH feet Rate Location/Type
06:14PM 44.4431 -109.1339 219° Southwest 130 150 8,000  Level Salt Lake Center
06:15PM 44.4142 -109.1797 229° Southwest 130 150 9,100 960 Climbing Salt Lake Center
06:16PM 44.3925 -109.2197 233° Southwest 130 150 10,000 780 Climbing Salt Lake Center
06:17PM 44.3692 -109.2567 229° Southwest 129 148 10,800 720 Climbing Salt Lake Center
06:18PM 44.3436 -109.2914 224° Southwest 128 147 11,500 660 Climbing Salt Lake Center
06:19PM 44.3259 -109.2126 219° Southwest  Level FlightAware Approximate
06:19PM 44.3133 -109.3228 217° Southwest 130 150 12,200  Level Salt Lake Center
06:20PM 44.2778 -109.3533 212° Southwest 138 159 13,000 780 Climbing Salt Lake Center
06:21PM 44.2439 -109.3856 214° Southwest 146 168 13,900 780 Climbing Salt Lake Center
06:22PM 44.2133 -109.4189 218° Southwest 143 165 14,700 780 Climbing Salt Lake Center
06:23PM 44.1758 -109.4581 217° Southwest 141 162 15,600 600 Climbing Salt Lake Center
06:24PM 44.1417 -109.4942 217° Southwest 147 169 16,000 180 Climbing Salt Lake Center
06:25PM 44.1039 -109.5350 218° Southwest 168 193 16,000  Level Salt Lake Center
06:26PM 44.0653 -109.5772 218° Southwest 180 207 16,000  Level Salt Lake Center
06:27PM 44.0222 -109.6267 220° Southwest 180 207 16,000  Level Salt Lake Center
06:28PM 43.9861 -109.6658 218° Southwest 175 201 16,000  Level Salt Lake Center
06:29PM 43.9419 -109.7125 217° Southwest 176 203 16,000  Level Salt Lake Center
06:30PM 43.9033 -109.7544 218° Southwest 182 209 16,000  Level Salt Lake Center
06:32PM 43.8647 -109.7933 216° Southwest 179 206 16,000  Level Salt Lake Center
06:33PM 43.8250 -109.8350 217° Southwest 179 206 16,000  Level Salt Lake Center
06:34PM 43.7828 -109.8703 211° Southwest 176 203 16,000  Level Salt Lake Center
06:35PM 43.7347 -109.8881 195° South 178 205 16,000  Level Salt Lake Center
06:36PM 43.7014 -109.9539 235° Southwest 175 201 16,000  Level Salt Lake Center
06:37PM 43.6647 -109.9994 222° Southwest 177 204 16,000  Level Salt Lake Center
06:38PM 43.6242 -110.0444 219° Southwest 185 213 16,000  Level Salt Lake Center
06:39PM 43.5881 -110.0908 223° Southwest 178 205 16,000  Level Salt Lake Center
06:40PM 43.5511 -110.1378 223° Southwest 180 207 16,000  Level Salt Lake Center
06:41PM 43.5119 -110.1803 218° Southwest 179 206 16,000  Level Salt Lake Center
06:42PM 43.4714 -110.2269 220° Southwest 180 207 16,100  Climbing Salt Lake Center
06:43PM 43.4331 -110.2672 217° Southwest 183 211 16,100  Level Salt Lake Center
06:44PM 43.3936 -110.3114 219° Southwest 181 208 16,100  Level Salt Lake Center
06:45PM 43.3636 -110.3664 233° Southwest 180 207 16,100  Level Salt Lake Center
06:46PM 43.3244 -110.4072 217° Southwest 177 204 16,100  Level Salt Lake Center
06:47PM 43.2792 -110.4619 221° Southwest 178 205 16,100 -480 Level Salt Lake Center
06:48PM 43.2436 -110.5197 230° Southwest 195 224 15,200 -660 Descending Salt Lake Center
06:49PM 43.2075 -110.5869 234° Southwest 215 247 14,800 -600 Descending Salt Lake Center
06:50PM 43.1758 -110.6467 234° Southwest 199 229 14,000 -840 Descending Salt Lake Center